Time;durP1;ratioP1;P1;durP2;ratioP2;P2;SDS_P1;SDS_P2;PMS_P1;PMS_P2;Temp;Humidity;BMP_temperature;BMP_pressure;BME280_temperature;BME280_humidity;BME280_pressure;Samples;Min_cycle;Max_cycle;Signal;HPM_P1;HPM_P2
2022/01/28 00:00:28;;;;;;;17.55;3.22;;;4.60;99.90;;;;;;4979017;28;20375;-68
2022/01/28 00:05:23;;;;;;;16.52;4.18;;;4.50;99.90;;;;;;4995827;28;20050;-68
2022/01/28 00:07:50;;;;;;;19.30;3.83;;;4.60;99.90;;;;;;4978923;28;20105;-69
2022/01/28 00:10:17;;;;;;;26.30;3.40;;;4.60;99.90;;;;;;4995083;28;20074;-70
2022/01/28 00:13:02;;;;;;;19.65;3.30;;;4.60;99.90;;;;;;4995882;28;20367;-69
2022/01/28 00:15:34;;;;;;;19.45;3.33;;;4.70;99.90;;;;;;4978484;28;20100;-68
2022/01/28 00:37:23;;;;;;;22.17;4.07;;;4.70;99.90;;;;;;4994221;28;20054;-67
2022/01/28 00:39:49;;;;;;;25.75;4.13;;;4.70;99.90;;;;;;4977511;28;20370;-68
2022/01/28 00:42:15;;;;;;;17.90;3.45;;;4.70;99.90;;;;;;4978320;28;20054;-69
2022/01/28 00:44:41;;;;;;;30.20;3.92;;;4.70;99.90;;;;;;4978455;28;20065;-68
2022/01/28 00:47:07;;;;;;;27.55;4.60;;;4.80;99.90;;;;;;4995362;28;20211;-67
2022/01/28 00:49:32;;;;;;;23.52;3.90;;;4.70;99.90;;;;;;4995282;28;20463;-68
2022/01/28 00:51:58;;;;;;;30.90;4.38;;;4.80;99.90;;;;;;4983521;28;20050;-69
2022/01/28 00:54:23;;;;;;;22.10;4.13;;;4.70;99.90;;;;;;4975797;28;20495;-68
2022/01/28 00:56:49;;;;;;;26.08;4.10;;;4.60;99.90;;;;;;4959008;28;20085;-70
2022/01/28 00:59:16;;;;;;;25.38;4.15;;;4.70;99.90;;;;;;4975719;28;20102;-67
2022/01/28 01:01:42;;;;;;;15.95;3.08;;;4.60;99.90;;;;;;4958510;28;20047;-68
2022/01/28 01:04:07;;;;;;;24.52;4.03;;;4.70;99.90;;;;;;4958355;28;20136;-67
2022/01/28 01:06:34;;;;;;;20.48;3.63;;;4.70;99.90;;;;;;4958608;28;20054;-67
2022/01/28 01:09:00;;;;;;;31.20;3.72;;;4.70;99.90;;;;;;4975186;28;20122;-69
2022/01/28 01:11:27;;;;;;;23.02;3.47;;;4.80;99.90;;;;;;4942901;28;20047;-69
2022/01/28 01:13:56;;;;;;;19.63;3.42;;;4.80;99.90;;;;;;4975487;28;20059;-69
2022/01/28 01:16:40;;;;;;;24.35;3.30;;;4.80;99.90;;;;;;4958812;28;20062;-67
2022/01/28 01:19:21;;;;;;;28.67;3.90;;;4.80;99.90;;;;;;4958490;28;20482;-67
2022/01/28 01:21:46;;;;;;;24.73;4.25;;;4.80;99.90;;;;;;4990934;28;20061;-69
2022/01/28 01:24:21;;;;;;;28.48;4.43;;;4.80;99.90;;;;;;4978123;28;20359;-67
2022/01/28 01:26:47;;;;;;;21.98;3.85;;;4.80;99.90;;;;;;4978080;28;20054;-67
2022/01/28 01:29:14;;;;;;;23.30;4.07;;;4.90;99.90;;;;;;4994903;28;20061;-68
2022/01/28 01:31:42;;;;;;;20.50;4.35;;;4.80;99.90;;;;;;4977764;28;20058;-68
2022/01/28 01:34:20;;;;;;;25.23;4.45;;;4.80;99.90;;;;;;4977740;28;20057;-68
2022/01/28 01:36:47;;;;;;;23.48;3.75;;;4.70;99.90;;;;;;4995236;28;20113;-68
2022/01/28 01:39:27;;;;;;;20.17;4.05;;;4.80;99.90;;;;;;4994745;28;20046;-67
2022/01/28 01:42:04;;;;;;;20.77;3.78;;;4.80;99.90;;;;;;4977661;28;20378;-67
2022/01/28 01:52:50;;;;;;;22.58;3.95;;;4.90;99.90;;;;;;4971620;28;20196;-67
2022/01/28 01:55:16;;;;;;;21.42;3.88;;;4.90;99.90;;;;;;4981521;28;20054;-66
2022/01/28 01:57:43;;;;;;;27.55;4.07;;;4.90;99.90;;;;;;4981031;28;20042;-69
2022/01/28 02:00:10;;;;;;;25.02;3.83;;;4.80;99.90;;;;;;4981174;28;20144;-69
2022/01/28 02:02:36;;;;;;;29.50;4.75;;;4.80;99.90;;;;;;4997732;28;20069;-69
2022/01/28 02:05:03;;;;;;;23.60;3.95;;;4.80;99.90;;;;;;4981009;28;20491;-68
2022/01/28 02:07:29;;;;;;;20.60;4.20;;;4.70;99.90;;;;;;4998668;28;20141;-69
2022/01/28 02:09:54;;;;;;;34.90;5.43;;;4.80;99.90;;;;;;4998164;28;20070;-69
2022/01/28 02:12:20;;;;;;;25.60;3.97;;;4.80;99.90;;;;;;4980747;28;20133;-68
2022/01/28 02:14:46;;;;;;;34.47;4.35;;;4.90;99.90;;;;;;4980327;28;20386;-67
2022/01/28 02:17:11;;;;;;;33.38;5.15;;;4.90;99.90;;;;;;4997510;28;20042;-67
2022/01/28 02:19:39;;;;;;;26.90;4.78;;;4.90;99.90;;;;;;4985139;28;20062;-67
2022/01/28 02:22:05;;;;;;;27.45;4.93;;;5.00;99.90;;;;;;4977963;28;20376;-70
2022/01/28 02:24:39;;;;;;;27.58;4.88;;;5.00;99.90;;;;;;4961029;28;20046;-68
2022/01/28 02:27:05;;;;;;;26.50;4.78;;;5.10;99.90;;;;;;4990980;28;20066;-69
2022/01/28 02:29:33;;;;;;;35.72;5.25;;;5.10;99.90;;;;;;4978043;28;20047;-68
2022/01/28 02:32:02;;;;;;;28.63;5.18;;;5.20;99.90;;;;;;4977847;28;20105;-68
2022/01/28 02:34:27;;;;;;;29.50;4.63;;;5.20;99.90;;;;;;4961274;28;20051;-68
2022/01/28 02:36:55;;;;;;;26.92;4.38;;;4.70;99.90;;;;;;4977513;28;20059;-68
2022/01/28 02:39:20;;;;;;;30.75;5.03;;;5.20;99.90;;;;;;4961012;28;20469;-69
2022/01/28 02:41:49;;;;;;;29.02;5.38;;;5.20;99.90;;;;;;4978154;28;20053;-68
2022/01/28 02:44:42;;;;;;;26.58;4.40;;;5.20;99.90;;;;;;4985903;28;20058;-67
2022/01/28 02:47:11;;;;;;;35.03;5.50;;;5.10;99.90;;;;;;4996776;28;20050;-68
2022/01/28 02:49:37;;;;;;;29.13;5.18;;;5.10;99.90;;;;;;4997080;28;20057;-69
2022/01/28 02:52:04;;;;;;;27.88;4.75;;;5.10;99.90;;;;;;4980347;28;20046;-69
2022/01/28 02:54:32;;;;;;;23.55;4.65;;;5.10;99.90;;;;;;4980070;28;20120;-67
2022/01/28 02:57:02;;;;;;;30.65;5.88;;;5.10;99.90;;;;;;4979868;28;20050;-68
2022/01/28 02:59:28;;;;;;;27.75;4.90;;;5.00;99.90;;;;;;4996847;28;20121;-67
2022/01/28 03:01:53;;;;;;;32.72;4.97;;;5.00;99.90;;;;;;4995417;28;20138;-68
2022/01/28 03:07:05;;;;;;;31.73;5.53;;;5.10;99.90;;;;;;4996254;28;20085;-68
2022/01/28 03:09:48;;;;;;;32.60;5.40;;;5.00;99.90;;;;;;4979717;28;20371;-68
2022/01/28 03:12:17;;;;;;;33.67;5.45;;;5.00;99.90;;;;;;4996766;28;20081;-67
2022/01/28 03:22:49;;;;;;;36.15;5.32;;;5.00;99.90;;;;;;4949643;28;20059;-69
2022/01/28 03:25:15;;;;;;;27.05;4.80;;;5.10;99.90;;;;;;4959922;28;20038;-68
2022/01/28 03:27:53;;;;;;;27.35;5.25;;;5.20;99.90;;;;;;4959986;28;20078;-68
2022/01/28 03:30:19;;;;;;;23.60;4.85;;;5.20;99.90;;;;;;4959927;28;20122;-69
2022/01/28 03:32:45;;;;;;;24.40;4.85;;;5.20;99.90;;;;;;4980587;28;20049;-68
2022/01/28 03:35:13;;;;;;;28.80;4.47;;;5.30;99.90;;;;;;4996252;28;20054;-68
2022/01/28 03:37:39;;;;;;;30.55;5.13;;;5.30;99.90;;;;;;4995961;28;20069;-68
2022/01/28 03:40:07;;;;;;;27.08;4.65;;;5.30;99.90;;;;;;4979418;28;20046;-68
2022/01/28 03:42:33;;;;;;;23.48;4.18;;;5.30;99.90;;;;;;4996365;28;20181;-69
2022/01/28 03:45:01;;;;;;;29.13;5.93;;;5.30;99.90;;;;;;4996021;28;20039;-68
2022/01/28 03:47:26;;;;;;;33.90;5.32;;;5.50;99.90;;;;;;4979083;28;20050;-69
2022/01/28 03:49:52;;;;;;;22.50;4.97;;;5.30;99.90;;;;;;4978785;28;20053;-68
2022/01/28 03:52:18;;;;;;;22.30;4.00;;;5.30;99.90;;;;;;4978878;28;20112;-67
2022/01/28 03:54:43;;;;;;;31.73;4.38;;;5.30;99.90;;;;;;4979231;28;20133;-68
2022/01/28 03:57:09;;;;;;;26.25;4.00;;;5.30;99.90;;;;;;4978952;28;20041;-67
2022/01/28 03:59:35;;;;;;;21.63;3.92;;;5.30;99.90;;;;;;4978805;28;20074;-70
2022/01/28 04:02:04;;;;;;;24.88;3.95;;;5.30;99.90;;;;;;4962755;28;20073;-69
2022/01/28 04:12:32;;;;;;;20.17;3.78;;;5.30;99.90;;;;;;4975247;28;20073;-69
2022/01/28 04:17:42;;;;;;;19.25;4.18;;;5.30;99.90;;;;;;4986417;28;20050;-67
2022/01/28 04:20:08;;;;;;;25.73;4.30;;;5.20;99.90;;;;;;4975359;28;20077;-67
2022/01/28 04:22:34;;;;;;;25.50;4.68;;;5.10;99.90;;;;;;4985793;28;20467;-68
2022/01/28 04:24:59;;;;;;;26.23;4.15;;;5.00;99.90;;;;;;4994193;28;20046;-69
2022/01/28 04:27:25;;;;;;;28.50;5.05;;;4.90;99.90;;;;;;4977862;28;20166;-69
2022/01/28 04:29:51;;;;;;;22.63;4.18;;;4.80;99.90;;;;;;4995308;28;20104;-68
2022/01/28 04:32:19;;;;;;;24.23;4.63;;;4.70;99.90;;;;;;4995430;28;20062;-68
2022/01/28 04:34:46;;;;;;;26.70;4.72;;;4.60;99.90;;;;;;4978191;28;20054;-67
2022/01/28 04:37:22;;;;;;;26.48;4.35;;;4.60;99.90;;;;;;4994992;28;20046;-69
2022/01/28 04:39:53;;;;;;;21.08;4.57;;;4.50;99.90;;;;;;4995203;28;20092;-68
2022/01/28 04:42:35;;;;;;;20.63;4.57;;;4.50;99.90;;;;;;4995217;28;20069;-67
2022/01/28 04:45:09;;;;;;;27.60;4.40;;;4.70;99.90;;;;;;4970870;28;20082;-68
2022/01/28 04:47:47;;;;;;;26.73;4.88;;;4.40;99.90;;;;;;4975706;28;20337;-67
2022/01/28 04:50:31;;;;;;;24.35;4.15;;;4.30;99.90;;;;;;4976226;28;20047;-69
2022/01/28 04:53:14;;;;;;;23.00;4.80;;;4.40;99.90;;;;;;4959075;28;20451;-69
2022/01/28 04:58:27;;;;;;;22.85;5.07;;;4.40;99.90;;;;;;4975611;28;20360;-68
2022/01/28 05:01:22;;;;;;;28.27;4.20;;;4.40;99.90;;;;;;4958723;28;20042;-68
2022/01/28 05:04:00;;;;;;;33.75;5.13;;;4.40;99.90;;;;;;4971634;28;20137;-67
2022/01/28 05:07:14;;;;;;;25.75;4.25;;;4.40;99.90;;;;;;4977557;28;20101;-69
2022/01/28 05:10:04;;;;;;;18.95;4.00;;;4.50;99.90;;;;;;4983699;28;20120;-67
2022/01/28 05:28:25;;;;;;;28.65;5.50;;;4.60;99.90;;;;;;4965856;28;20047;-67
2022/01/28 05:30:51;;;;;;;29.85;4.85;;;4.60;99.90;;;;;;4967411;28;20060;-68
2022/01/28 05:33:16;;;;;;;33.95;5.20;;;4.50;99.90;;;;;;4999433;28;20046;-68
2022/01/28 05:35:42;;;;;;;21.40;4.32;;;4.50;99.90;;;;;;4980855;28;20069;-69
2022/01/28 05:38:08;;;;;;;27.67;4.30;;;4.50;99.90;;;;;;4998534;28;20054;-68
2022/01/28 05:40:33;;;;;;;30.25;4.65;;;4.50;99.90;;;;;;4981343;28;20188;-68
2022/01/28 05:42:59;;;;;;;25.83;4.82;;;4.30;99.90;;;;;;4998538;28;20046;-68
2022/01/28 05:45:24;;;;;;;30.20;5.13;;;4.30;99.90;;;;;;4981844;28;20451;-68
2022/01/28 05:47:50;;;;;;;24.60;4.47;;;4.30;99.90;;;;;;4998698;28;20062;-68
2022/01/28 05:50:15;;;;;;;34.65;5.50;;;4.30;99.90;;;;;;4989136;28;20038;-69
2022/01/28 05:52:41;;;;;;;25.90;4.22;;;4.30;99.90;;;;;;5016798;28;20060;-68
2022/01/28 05:55:07;;;;;;;23.17;4.47;;;4.90;99.90;;;;;;4982583;28;20047;-68
2022/01/28 05:57:33;;;;;;;33.40;5.30;;;4.30;99.90;;;;;;4964950;28;20054;-70
2022/01/28 05:59:58;;;;;;;25.60;4.95;;;4.40;99.90;;;;;;4967155;28;20057;-69
2022/01/28 06:02:24;;;;;;;18.73;4.72;;;4.40;99.90;;;;;;4983519;28;20418;-67
2022/01/28 06:04:49;;;;;;;22.25;4.25;;;4.40;99.90;;;;;;4993688;28;20050;-70
2022/01/28 06:07:15;;;;;;;19.92;4.10;;;4.60;99.90;;;;;;4988462;28;20116;-69
2022/01/28 06:09:40;;;;;;;21.70;4.25;;;4.40;99.90;;;;;;5001373;28;20137;-69
2022/01/28 06:12:07;;;;;;;26.85;4.13;;;4.50;99.90;;;;;;4997496;28;20054;-68
2022/01/28 06:14:32;;;;;;;21.92;4.68;;;4.50;99.90;;;;;;4997935;28;20046;-69
2022/01/28 06:16:58;;;;;;;20.55;4.82;;;4.50;99.90;;;;;;4997937;28;20046;-68
2022/01/28 06:19:23;;;;;;;24.42;4.25;;;4.60;99.90;;;;;;4997653;28;20049;-69
2022/01/28 06:21:49;;;;;;;37.15;4.95;;;4.60;99.90;;;;;;4980102;28;20120;-70
2022/01/28 06:24:14;;;;;;;27.45;4.75;;;4.60;99.90;;;;;;4997698;28;20096;-68
2022/01/28 06:26:40;;;;;;;27.15;5.07;;;4.70;99.90;;;;;;4997799;28;20469;-67
2022/01/28 06:29:06;;;;;;;27.65;5.10;;;4.70;99.90;;;;;;4997975;28;20117;-68
2022/01/28 06:31:32;;;;;;;33.05;4.95;;;4.70;99.90;;;;;;4997150;28;20121;-68
2022/01/28 06:33:58;;;;;;;30.08;5.10;;;4.70;99.90;;;;;;4997599;28;20359;-69
2022/01/28 06:36:23;;;;;;;25.13;3.88;;;4.70;99.90;;;;;;4996249;28;20054;-68
2022/01/28 06:38:49;;;;;;;24.58;4.75;;;4.70;99.90;;;;;;4994274;28;20069;-68
2022/01/28 06:41:15;;;;;;;33.28;5.15;;;4.70;99.90;;;;;;4996601;28;20046;-68
2022/01/28 06:43:40;;;;;;;32.65;4.90;;;4.70;99.90;;;;;;4996089;28;20043;-69
2022/01/28 06:46:06;;;;;;;27.23;5.00;;;4.70;99.90;;;;;;4996509;28;20105;-68
2022/01/28 06:48:32;;;;;;;26.08;4.40;;;4.70;99.90;;;;;;5004752;28;20475;-70
2022/01/28 06:50:57;;;;;;;28.83;5.07;;;4.60;99.90;;;;;;5005251;28;20093;-70
2022/01/28 06:53:23;;;;;;;25.85;4.25;;;4.60;99.90;;;;;;5008855;28;20077;-69
2022/01/28 06:55:49;;;;;;;31.05;4.63;;;4.60;99.90;;;;;;4981434;28;20379;-69
2022/01/28 06:58:14;;;;;;;26.08;4.50;;;4.60;99.90;;;;;;5015762;28;20465;-68
2022/01/28 07:00:40;;;;;;;32.10;4.93;;;4.50;99.90;;;;;;5010505;28;20112;-68
2022/01/28 07:03:11;;;;;;;28.15;4.88;;;4.50;99.90;;;;;;4995987;28;20082;-68
2022/01/28 07:05:37;;;;;;;34.63;5.43;;;4.50;99.90;;;;;;4996280;28;20046;-69
2022/01/28 07:08:03;;;;;;;25.63;4.70;;;4.40;99.90;;;;;;4995706;28;20108;-69
2022/01/28 07:10:29;;;;;;;31.77;5.30;;;4.30;99.90;;;;;;4995814;28;20046;-68
2022/01/28 07:12:55;;;;;;;28.48;4.88;;;4.30;99.90;;;;;;4978543;28;20054;-69
2022/01/28 07:15:24;;;;;;;32.92;4.57;;;4.20;99.90;;;;;;4996037;28;20042;-69
2022/01/28 07:17:54;;;;;;;24.27;4.45;;;4.20;99.90;;;;;;4995881;28;20172;-69
2022/01/28 07:20:20;;;;;;;33.50;5.07;;;4.20;99.90;;;;;;4995845;28;20140;-69
2022/01/28 07:22:46;;;;;;;33.15;5.60;;;4.20;99.90;;;;;;4995601;28;20101;-67
2022/01/28 07:25:12;;;;;;;31.67;4.85;;;4.20;99.90;;;;;;4995628;28;20042;-67
2022/01/28 07:27:37;;;;;;;28.00;4.53;;;4.30;99.90;;;;;;4977090;28;20120;-67
2022/01/28 07:30:05;;;;;;;30.85;5.25;;;4.30;99.90;;;;;;5003139;28;20049;-68
2022/01/28 07:32:30;;;;;;;27.45;4.68;;;4.40;99.90;;;;;;4996083;28;20421;-67
2022/01/28 07:34:56;;;;;;;32.22;5.15;;;4.50;99.90;;;;;;4967017;28;1017299;-68
2022/01/28 07:37:21;;;;;;;30.92;4.95;;;4.80;99.90;;;;;;5008449;28;20116;-66
2022/01/28 07:39:47;;;;;;;26.48;3.90;;;4.70;99.90;;;;;;5013847;28;20470;-68
2022/01/28 07:42:13;;;;;;;30.10;4.93;;;4.70;99.90;;;;;;4979942;28;20042;-67
2022/01/28 07:44:38;;;;;;;35.42;5.18;;;4.70;99.90;;;;;;4978157;28;20117;-68
2022/01/28 07:47:04;;;;;;;27.52;4.63;;;4.70;99.90;;;;;;4995377;28;20038;-67
2022/01/28 07:49:30;;;;;;;31.70;4.45;;;4.70;99.90;;;;;;4978827;28;20054;-66
2022/01/28 07:51:55;;;;;;;26.98;4.25;;;4.70;99.90;;;;;;4978248;28;20474;-68
2022/01/28 07:54:21;;;;;;;26.50;4.80;;;4.60;99.90;;;;;;4995904;28;20045;-68
2022/01/28 07:56:51;;;;;;;23.45;4.25;;;4.60;99.90;;;;;;4995606;28;20119;-68
2022/01/28 07:59:17;;;;;;;27.00;5.07;;;4.50;99.90;;;;;;4995633;28;20430;-68
2022/01/28 08:01:42;;;;;;;30.50;5.90;;;4.50;99.90;;;;;;4978315;28;20046;-69
2022/01/28 08:04:08;;;;;;;32.35;4.68;;;4.50;99.90;;;;;;4988139;28;20038;-69
2022/01/28 08:06:34;;;;;;;32.33;4.88;;;4.50;99.90;;;;;;4973550;28;20084;-69
2022/01/28 08:09:00;;;;;;;28.05;5.65;;;4.50;99.90;;;;;;4973165;28;20371;-69
2022/01/28 08:11:26;;;;;;;32.38;4.90;;;4.50;99.90;;;;;;4994328;28;20822;-69
2022/01/28 08:13:52;;;;;;;39.70;5.65;;;4.50;99.90;;;;;;4997914;28;20054;-70
2022/01/28 08:16:17;;;;;;;34.60;5.10;;;4.50;99.90;;;;;;4994689;28;20050;-69
2022/01/28 08:18:43;;;;;;;30.02;5.50;;;4.50;99.90;;;;;;5009141;28;20057;-69
2022/01/28 08:21:09;;;;;;;34.40;5.53;;;4.40;99.90;;;;;;5008282;28;20053;-70
2022/01/28 08:23:35;;;;;;;27.63;5.30;;;4.80;99.90;;;;;;5010283;28;20061;-70
2022/01/28 08:26:01;;;;;;;33.75;5.75;;;4.30;99.90;;;;;;5004673;28;20054;-69
2022/01/28 08:28:27;;;;;;;33.45;5.93;;;4.40;99.90;;;;;;4994561;28;20042;-68
2022/01/28 08:30:53;;;;;;;24.88;4.38;;;4.50;99.90;;;;;;4977473;28;20051;-67
2022/01/28 08:33:18;;;;;;;33.28;5.45;;;4.50;99.90;;;;;;4994696;28;20089;-70
2022/01/28 08:35:50;;;;;;;33.47;5.50;;;4.60;99.90;;;;;;4977499;28;20590;-68
2022/01/28 08:38:24;;;;;;;24.02;4.35;;;4.60;99.90;;;;;;4994512;28;20105;-69
2022/01/28 08:40:50;;;;;;;25.88;4.82;;;4.70;99.90;;;;;;4993701;28;20046;-68
2022/01/28 08:43:16;;;;;;;34.35;4.85;;;4.80;99.90;;;;;;4999651;28;20053;-69
2022/01/28 08:45:42;;;;;;;31.10;5.03;;;4.90;99.90;;;;;;5006644;28;20051;-71
2022/01/28 08:48:07;;;;;;;35.38;4.72;;;4.90;99.90;;;;;;5004441;28;20046;-70
2022/01/28 08:50:33;;;;;;;33.10;5.30;;;4.80;99.90;;;;;;5000147;28;20038;-67
2022/01/28 08:52:58;;;;;;;26.48;4.85;;;4.80;99.90;;;;;;4994628;28;20077;-69
2022/01/28 08:55:24;;;;;;;26.02;5.07;;;4.70;99.90;;;;;;4977877;28;20058;-68
2022/01/28 08:57:50;;;;;;;31.48;4.70;;;4.70;99.90;;;;;;4977863;28;20057;-69
2022/01/28 09:00:17;;;;;;;23.98;4.30;;;4.70;99.90;;;;;;4996636;28;20038;-70
2022/01/28 09:02:44;;;;;;;27.38;4.45;;;4.70;99.90;;;;;;4998425;28;20046;-67
2022/01/28 09:05:10;;;;;;;28.17;4.45;;;4.70;99.90;;;;;;4998992;28;20057;-66
2022/01/28 09:07:36;;;;;;;28.13;4.63;;;4.60;99.90;;;;;;4996271;28;20050;-67
2022/01/28 09:10:10;;;;;;;30.48;4.68;;;4.70;99.90;;;;;;4983343;28;20038;-69
2022/01/28 09:12:46;;;;;;;32.17;4.78;;;4.70;99.90;;;;;;4998325;28;20125;-68
2022/01/28 09:15:14;;;;;;;28.05;4.82;;;4.70;99.90;;;;;;4998600;28;20407;-69
2022/01/28 09:17:39;;;;;;;23.65;4.72;;;4.70;99.90;;;;;;4997889;28;20046;-68
2022/01/28 09:20:06;;;;;;;26.65;5.13;;;4.80;99.90;;;;;;4997786;28;20050;-69
2022/01/28 09:22:31;;;;;;;21.88;4.65;;;4.80;99.90;;;;;;4980284;28;20078;-69
2022/01/28 09:24:57;;;;;;;22.92;4.88;;;4.90;99.90;;;;;;4997610;28;20148;-68
2022/01/28 09:27:23;;;;;;;26.38;3.95;;;5.30;99.90;;;;;;4998187;28;20065;-69
2022/01/28 09:29:48;;;;;;;28.27;4.82;;;5.00;99.90;;;;;;4980788;28;20046;-69
2022/01/28 09:32:16;;;;;;;31.20;5.75;;;5.10;99.90;;;;;;4997415;28;20048;-68
2022/01/28 09:34:45;;;;;;;28.20;4.53;;;5.20;99.90;;;;;;4997070;28;20046;-68
2022/01/28 09:37:13;;;;;;;31.42;4.75;;;5.20;99.90;;;;;;4998098;28;20517;-68
2022/01/28 09:39:43;;;;;;;33.42;5.47;;;5.40;99.90;;;;;;4981126;28;20209;-69
2022/01/28 09:42:14;;;;;;;30.33;4.93;;;5.50;99.90;;;;;;4997247;28;20046;-68
2022/01/28 09:44:40;;;;;;;29.23;4.53;;;5.60;99.90;;;;;;4997803;28;20057;-68
2022/01/28 09:47:07;;;;;;;32.60;4.75;;;5.60;99.90;;;;;;4998128;28;20050;-68
2022/01/28 09:49:32;;;;;;;28.60;4.72;;;5.70;99.90;;;;;;4997830;28;20132;-68
2022/01/28 09:52:00;;;;;;;31.95;4.68;;;5.80;99.90;;;;;;4997016;28;20042;-68
2022/01/28 09:54:26;;;;;;;29.85;4.60;;;5.80;99.90;;;;;;4997661;28;20047;-68
2022/01/28 09:56:52;;;;;;;28.90;4.68;;;5.90;99.90;;;;;;4997633;28;20134;-68
2022/01/28 09:59:17;;;;;;;30.90;4.78;;;6.00;99.90;;;;;;4997819;28;20105;-67
2022/01/28 10:01:54;;;;;;;28.08;4.78;;;6.00;99.90;;;;;;4980033;28;20101;-67
2022/01/28 10:04:20;;;;;;;33.95;6.00;;;6.10;99.90;;;;;;4980378;28;20054;-68
2022/01/28 10:06:47;;;;;;;27.42;3.85;;;6.10;99.90;;;;;;4997310;28;20407;-67
2022/01/28 10:09:18;;;;;;;25.73;4.70;;;6.20;99.90;;;;;;4997381;28;20133;-67
2022/01/28 10:11:47;;;;;;;30.77;4.63;;;6.20;99.90;;;;;;4980233;28;20348;-68
2022/01/28 10:14:17;;;;;;;23.08;4.05;;;6.30;99.90;;;;;;4980481;28;20069;-68
2022/01/28 10:16:57;;;;;;;25.42;4.28;;;6.30;99.90;;;;;;4996858;28;20459;-67
2022/01/28 10:19:26;;;;;;;34.55;4.93;;;6.40;99.90;;;;;;4996714;28;20141;-68
2022/01/28 10:21:52;;;;;;;26.17;4.85;;;6.40;99.90;;;;;;4995569;28;20047;-69
2022/01/28 10:24:26;;;;;;;42.20;5.35;;;6.50;99.90;;;;;;4996536;28;20074;-69
2022/01/28 10:27:06;;;;;;;32.60;4.70;;;6.50;99.90;;;;;;4979084;28;20050;-68
2022/01/28 10:29:40;;;;;;;33.47;5.32;;;6.50;99.90;;;;;;4979083;28;20054;-68
2022/01/28 10:32:12;;;;;;;33.33;5.05;;;6.50;99.90;;;;;;4978647;28;20053;-67
2022/01/28 10:34:42;;;;;;;30.38;5.00;;;6.50;99.90;;;;;;4996603;28;20042;-67
2022/01/28 10:37:22;;;;;;;29.10;4.65;;;6.50;99.90;;;;;;4995788;28;20046;-68
2022/01/28 10:39:55;;;;;;;26.25;4.72;;;6.60;99.90;;;;;;4995807;28;20262;-68
2022/01/28 10:42:48;;;;;;;29.17;5.18;;;6.60;99.90;;;;;;4995483;28;20083;-71
2022/01/28 10:45:18;;;;;;;29.65;4.55;;;6.70;99.90;;;;;;4996764;28;20062;-68
2022/01/28 10:47:46;;;;;;;32.42;5.28;;;6.70;99.90;;;;;;4979261;28;20069;-69
2022/01/28 10:50:15;;;;;;;26.60;4.80;;;6.80;99.90;;;;;;4978896;28;20060;-67
2022/01/28 10:52:41;;;;;;;25.90;4.88;;;6.90;99.90;;;;;;4995909;28;20532;-69
2022/01/28 10:55:07;;;;;;;23.35;4.57;;;6.90;99.90;;;;;;4996178;28;20046;-70
2022/01/28 10:57:32;;;;;;;26.70;4.57;;;7.00;99.90;;;;;;4978823;28;20455;-68
2022/01/28 10:59:58;;;;;;;27.15;4.13;;;7.00;99.90;;;;;;4979216;28;20046;-67
2022/01/28 11:02:25;;;;;;;25.35;5.00;;;7.00;99.90;;;;;;4993219;28;20455;-68
2022/01/28 11:04:54;;;;;;;26.13;4.15;;;7.10;99.90;;;;;;4985934;28;20066;-67
2022/01/28 11:07:20;;;;;;;24.58;4.63;;;7.10;99.90;;;;;;4977586;28;20465;-68
2022/01/28 11:09:46;;;;;;;20.73;4.55;;;7.10;99.90;;;;;;4992963;28;20128;-67
2022/01/28 11:12:12;;;;;;;23.17;4.38;;;7.10;99.90;;;;;;4996124;28;20042;-67
2022/01/28 11:14:39;;;;;;;26.85;4.13;;;7.20;99.90;;;;;;4986020;28;20058;-67
2022/01/28 11:17:04;;;;;;;30.38;4.43;;;7.20;99.90;;;;;;5004724;28;20081;-69
2022/01/28 11:19:36;;;;;;;31.05;4.68;;;7.30;99.90;;;;;;5009291;28;20046;-68
2022/01/28 11:22:13;;;;;;;20.95;3.58;;;7.60;99.90;;;;;;4995433;28;20093;-66
2022/01/28 11:24:59;;;;;;;25.88;5.10;;;7.40;99.90;;;;;;4994904;28;20050;-69
2022/01/28 11:27:36;;;;;;;20.20;4.18;;;7.50;99.90;;;;;;4977822;28;20050;-68
2022/01/28 11:30:18;;;;;;;17.83;4.07;;;7.60;99.90;;;;;;4979108;28;20051;-66
2022/01/28 11:32:53;;;;;;;24.23;4.22;;;7.60;99.90;;;;;;4962556;28;20173;-70
2022/01/28 11:35:21;;;;;;;28.23;4.50;;;7.60;99.90;;;;;;4978724;28;20057;-67
2022/01/28 11:37:47;;;;;;;26.30;4.05;;;7.60;99.90;;;;;;4994942;28;20050;-68
2022/01/28 11:40:15;;;;;;;27.40;4.45;;;7.50;99.90;;;;;;4994610;28;20375;-68
2022/01/28 11:42:42;;;;;;;26.00;4.38;;;7.50;99.90;;;;;;4995722;28;20058;-69
2022/01/28 11:45:12;;;;;;;23.10;3.78;;;7.40;99.90;;;;;;4995761;28;20042;-68
2022/01/28 11:47:52;;;;;;;28.52;4.53;;;7.30;99.90;;;;;;4995622;28;20050;-69
2022/01/28 11:50:22;;;;;;;22.10;4.20;;;7.20;99.90;;;;;;4995857;28;20383;-69
2022/01/28 11:52:56;;;;;;;30.27;4.30;;;7.20;99.90;;;;;;4995057;28;20057;-67
2022/01/28 11:55:21;;;;;;;25.08;4.38;;;7.10;99.90;;;;;;4996918;28;20410;-68
2022/01/28 11:58:07;;;;;;;20.98;3.65;;;7.20;99.90;;;;;;4978085;28;20129;-69
2022/01/28 12:00:45;;;;;;;24.67;4.75;;;7.20;99.90;;;;;;4994987;28;20046;-68
2022/01/28 12:03:19;;;;;;;26.98;4.35;;;7.30;99.90;;;;;;4977572;28;20109;-68
2022/01/28 12:05:47;;;;;;;26.77;4.45;;;7.20;99.90;;;;;;4995165;28;20057;-69
2022/01/28 12:08:17;;;;;;;22.13;4.65;;;7.20;99.90;;;;;;4976391;28;20046;-70
2022/01/28 12:10:45;;;;;;;28.63;4.00;;;7.10;99.90;;;;;;4977700;28;20077;-71
2022/01/28 12:13:16;;;;;;;38.53;5.68;;;7.20;99.90;;;;;;4995333;28;20054;-69
2022/01/28 12:18:54;;;;;;;26.75;4.13;;;7.10;99.90;;;;;;4976263;28;20051;-68
2022/01/28 12:21:28;;;;;;;25.85;4.13;;;7.10;99.90;;;;;;5001733;28;20080;-70
2022/01/28 12:24:15;;;;;;;27.98;4.32;;;7.00;99.90;;;;;;4999512;28;20053;-68
2022/01/28 12:27:10;;;;;;;23.95;4.05;;;7.10;99.90;;;;;;4994041;28;20137;-67
2022/01/28 12:29:43;;;;;;;28.13;4.40;;;7.10;99.90;;;;;;4995301;28;20467;-69
2022/01/28 12:32:10;;;;;;;30.60;4.60;;;7.20;99.90;;;;;;4991315;28;20069;-69
2022/01/28 12:34:46;;;;;;;26.63;4.75;;;7.30;99.90;;;;;;5007852;28;20069;-68
2022/01/28 12:37:12;;;;;;;28.10;4.85;;;7.40;99.90;;;;;;5003982;28;20064;-70
2022/01/28 12:39:51;;;;;;;24.77;5.45;;;7.40;99.90;;;;;;4994899;28;20058;-69
2022/01/28 12:42:23;;;;;;;24.33;4.35;;;7.40;99.90;;;;;;4994634;28;20134;-69
2022/01/28 12:44:57;;;;;;;36.25;5.03;;;7.40;99.90;;;;;;4985479;28;20052;-69
2022/01/28 12:47:24;;;;;;;25.40;4.90;;;7.40;99.90;;;;;;4994461;28;20085;-71
2022/01/28 12:50:03;;;;;;;31.30;4.15;;;7.40;99.90;;;;;;4999903;28;20054;-69
2022/01/28 12:52:34;;;;;;;27.55;4.75;;;7.30;99.90;;;;;;4994927;28;20046;-68
2022/01/28 12:55:00;;;;;;;26.98;5.03;;;7.40;99.90;;;;;;4994970;28;20050;-70
2022/01/28 12:57:26;;;;;;;23.52;4.00;;;7.40;99.90;;;;;;4993918;28;20097;-69
2022/01/28 12:59:52;;;;;;;28.80;5.20;;;7.40;99.90;;;;;;4977611;28;20049;-70
2022/01/28 13:02:19;;;;;;;23.05;4.00;;;7.50;99.90;;;;;;4977072;28;20078;-68
2022/01/28 13:04:56;;;;;;;25.02;4.32;;;7.50;99.90;;;;;;4995073;28;20046;-68
2022/01/28 13:09:57;;;;;;;28.70;4.32;;;7.70;99.90;;;;;;4993381;28;20376;-68
2022/01/28 13:12:27;;;;;;;21.35;4.75;;;7.70;99.90;;;;;;4993823;28;20455;-69
2022/01/28 13:14:53;;;;;;;24.55;4.13;;;7.90;99.90;;;;;;4978349;28;20093;-69
2022/01/28 13:17:21;;;;;;;21.13;4.30;;;7.80;99.90;;;;;;4994930;28;20093;-67
2022/01/28 13:19:54;;;;;;;26.40;4.15;;;7.80;99.90;;;;;;4978275;28;20542;-68
2022/01/28 13:22:29;;;;;;;32.92;4.20;;;8.00;99.90;;;;;;4977329;28;20074;-66
2022/01/28 13:24:56;;;;;;;22.55;4.10;;;7.80;99.90;;;;;;4977426;28;20046;-66
2022/01/28 13:27:36;;;;;;;25.63;4.55;;;7.70;99.90;;;;;;4977050;28;20061;-68
2022/01/28 13:30:12;;;;;;;24.75;4.85;;;7.70;99.90;;;;;;4994966;28;20055;-66
2022/01/28 13:32:41;;;;;;;25.08;3.67;;;7.60;99.90;;;;;;4975620;28;20527;-67
2022/01/28 13:35:17;;;;;;;22.75;3.75;;;7.50;99.90;;;;;;4989022;28;20057;-68
2022/01/28 13:37:49;;;;;;;18.52;3.63;;;7.40;99.90;;;;;;4994958;28;20086;-67
2022/01/28 13:40:20;;;;;;;17.70;3.90;;;7.40;99.90;;;;;;4994152;28;20096;-66
2022/01/28 13:43:15;;;;;;;21.90;3.95;;;7.40;99.90;;;;;;4994180;28;20053;-69
2022/01/28 13:45:56;;;;;;;26.65;3.60;;;7.50;99.90;;;;;;4962474;28;20054;-69
2022/01/28 13:48:34;;;;;;;20.02;3.40;;;7.50;99.90;;;;;;4998076;28;20060;-67
2022/01/28 13:51:16;;;;;;;19.52;3.60;;;7.60;99.90;;;;;;4981598;28;20367;-68
2022/01/28 13:56:35;;;;;;;16.98;3.95;;;7.70;99.90;;;;;;4984690;28;20050;-67
2022/01/28 13:59:08;;;;;;;19.88;3.45;;;7.70;99.90;;;;;;4980143;28;20053;-68
2022/01/28 14:01:35;;;;;;;19.45;3.97;;;7.70;99.90;;;;;;4980441;28;20100;-69
2022/01/28 14:04:02;;;;;;;18.85;3.97;;;7.60;99.90;;;;;;4980429;28;20498;-69
2022/01/28 14:06:35;;;;;;;22.33;3.70;;;7.60;99.90;;;;;;4980147;28;20046;-70
2022/01/28 14:09:15;;;;;;;22.63;4.05;;;7.60;99.90;;;;;;4980599;28;20301;-69
2022/01/28 14:11:44;;;;;;;19.27;3.45;;;7.50;99.90;;;;;;4996845;28;20074;-67
2022/01/28 14:14:23;;;;;;;21.02;3.03;;;7.50;99.90;;;;;;4997191;28;20496;-68
2022/01/28 14:16:57;;;;;;;18.92;3.53;;;7.50;99.90;;;;;;5010827;28;20065;-69